Terminal Aerodrome Forecast
Issued by NWS

Home | Current Version | Previous Version | Text Only | Print | Product List | Glossary On
Versions: 1 2 3 4 5 6 7 8 9 10 11 12 13 14 15 16 17
000
FTAK31 PAFA 201120
TAFAUN
TAF
PAUN 201120Z 2012/2112 06011KT P6SM -SHRA OVC035
     FM201800 10009KT P6SM VCSH FEW035 SCT050 BKN100
     FM210300 36005KT P6SM -SHRA BKN045=

USA.gov is the U.S. government's official web portal to all federal, state and local government web resources and services.